sensor_id;sensor_type;location;lat;lon;timestamp;pressure;altitude;pressure_sealevel;temperature;humidity
8705;BME280;4389;41.932;25.904;2023-02-10T00:01:41;102817.72;;;-4.15;76.25
8705;BME280;4389;41.932;25.904;2023-02-10T00:04:10;102819.47;;;-4.09;75.89
8705;BME280;4389;41.932;25.904;2023-02-10T00:06:39;102809.25;;;-4.00;75.92
8705;BME280;4389;41.932;25.904;2023-02-10T00:09:07;102805.84;;;-3.93;75.71
8705;BME280;4389;41.932;25.904;2023-02-10T00:11:33;102798.94;;;-3.94;75.28
8705;BME280;4389;41.932;25.904;2023-02-10T00:14:19;102810.91;;;-4.08;75.34
8705;BME280;4389;41.932;25.904;2023-02-10T00:16:48;102799.66;;;-4.13;76.09
8705;BME280;4389;41.932;25.904;2023-02-10T00:19:15;102804.13;;;-3.94;75.96
8705;BME280;4389;41.932;25.904;2023-02-10T00:21:44;102805.81;;;-3.96;75.60
8705;BME280;4389;41.932;25.904;2023-02-10T00:24:10;102804.97;;;-3.97;75.76
8705;BME280;4389;41.932;25.904;2023-02-10T00:26:37;102803.16;;;-4.02;76.13
8705;BME280;4389;41.932;25.904;2023-02-10T00:29:04;102804.84;;;-4.06;76.29
8705;BME280;4389;41.932;25.904;2023-02-10T00:31:31;102796.22;;;-4.11;76.97
8705;BME280;4389;41.932;25.904;2023-02-10T00:33:58;102801.38;;;-4.15;77.41
8705;BME280;4389;41.932;25.904;2023-02-10T00:36:25;102805.47;;;-4.37;77.56
8705;BME280;4389;41.932;25.904;2023-02-10T00:38:53;102805.50;;;-4.32;78.03
8705;BME280;4389;41.932;25.904;2023-02-10T00:41:21;102802.88;;;-4.39;78.26
8705;BME280;4389;41.932;25.904;2023-02-10T00:43:48;102791.63;;;-4.43;78.71
8705;BME280;4389;41.932;25.904;2023-02-10T00:46:17;102790.72;;;-4.48;78.33
8705;BME280;4389;41.932;25.904;2023-02-10T00:48:44;102791.38;;;-4.67;78.44
8705;BME280;4389;41.932;25.904;2023-02-10T00:51:12;102775.59;;;-4.95;79.08
8705;BME280;4389;41.932;25.904;2023-02-10T00:53:39;102779.00;;;-4.98;79.74
8705;BME280;4389;41.932;25.904;2023-02-10T00:56:08;102778.19;;;-4.95;79.51
8705;BME280;4389;41.932;25.904;2023-02-10T00:58:36;102787.34;;;-5.17;79.19
8705;BME280;4389;41.932;25.904;2023-02-10T01:01:03;102782.22;;;-5.18;79.86
8705;BME280;4389;41.932;25.904;2023-02-10T01:03:31;102781.25;;;-5.25;80.43
8705;BME280;4389;41.932;25.904;2023-02-10T01:05:58;102776.88;;;-5.32;80.64
8705;BME280;4389;41.932;25.904;2023-02-10T01:08:25;102781.25;;;-5.25;80.98
8705;BME280;4389;41.932;25.904;2023-02-10T01:11:00;102777.91;;;-5.18;81.35
8705;BME280;4389;41.932;25.904;2023-02-10T01:13:28;102782.44;;;-4.99;81.20
8705;BME280;4389;41.932;25.904;2023-02-10T01:15:55;102769.56;;;-4.96;81.09
8705;BME280;4389;41.932;25.904;2023-02-10T01:18:22;102767.84;;;-4.95;81.31
8705;BME280;4389;41.932;25.904;2023-02-10T01:20:49;102772.22;;;-4.90;81.21
8705;BME280;4389;41.932;25.904;2023-02-10T01:23:15;102765.41;;;-4.82;81.04
8705;BME280;4389;41.932;25.904;2023-02-10T01:25:42;102766.34;;;-4.74;80.92
8705;BME280;4389;41.932;25.904;2023-02-10T01:28:09;102766.38;;;-4.72;80.32
8705;BME280;4389;41.932;25.904;2023-02-10T01:30:38;102766.03;;;-5.04;80.44
8705;BME280;4389;41.932;25.904;2023-02-10T01:33:04;102762.28;;;-5.31;81.90
8705;BME280;4389;41.932;25.904;2023-02-10T01:35:31;102753.00;;;-5.17;82.23
8705;BME280;4389;41.932;25.904;2023-02-10T01:37:58;102758.91;;;-5.26;82.76
8705;BME280;4389;41.932;25.904;2023-02-10T01:40:25;102752.84;;;-5.29;82.95
8705;BME280;4389;41.932;25.904;2023-02-10T01:42:52;102758.88;;;-5.29;83.54
8705;BME280;4389;41.932;25.904;2023-02-10T01:45:24;102762.53;;;-5.09;83.44
8705;BME280;4389;41.932;25.904;2023-02-10T01:47:55;102756.88;;;-5.49;83.43
8705;BME280;4389;41.932;25.904;2023-02-10T01:50:25;102748.03;;;-5.68;83.76
8705;BME280;4389;41.932;25.904;2023-02-10T01:52:53;102752.25;;;-5.73;84.58
8705;BME280;4389;41.932;25.904;2023-02-10T01:55:22;102752.50;;;-5.55;84.17
8705;BME280;4389;41.932;25.904;2023-02-10T01:57:51;102755.41;;;-5.29;83.14
8705;BME280;4389;41.932;25.904;2023-02-10T02:00:20;102754.72;;;-5.16;82.63
8705;BME280;4389;41.932;25.904;2023-02-10T02:02:48;102750.34;;;-5.20;82.16
8705;BME280;4389;41.932;25.904;2023-02-10T02:05:22;102746.72;;;-5.37;82.62
8705;BME280;4389;41.932;25.904;2023-02-10T02:07:53;102747.41;;;-5.50;82.87
8705;BME280;4389;41.932;25.904;2023-02-10T02:10:22;102745.66;;;-5.53;83.65
8705;BME280;4389;41.932;25.904;2023-02-10T02:12:55;102744.09;;;-5.40;83.38
8705;BME280;4389;41.932;25.904;2023-02-10T02:15:27;102736.34;;;-5.42;82.76
8705;BME280;4389;41.932;25.904;2023-02-10T02:18:02;102737.91;;;-5.53;82.75
8705;BME280;4389;41.932;25.904;2023-02-10T02:27:09;102736.66;;;-5.85;84.21
8705;BME280;4389;41.932;25.904;2023-02-10T02:32:53;102740.09;;;-5.86;84.60
8705;BME280;4389;41.932;25.904;2023-02-10T02:35:23;102748.78;;;-5.75;84.70
8705;BME280;4389;41.932;25.904;2023-02-10T02:37:52;102736.53;;;-5.92;84.43
8705;BME280;4389;41.932;25.904;2023-02-10T02:40:20;102741.13;;;-5.70;84.64
8705;BME280;4389;41.932;25.904;2023-02-10T02:42:47;102743.78;;;-5.64;83.75
8705;BME280;4389;41.932;25.904;2023-02-10T02:45:18;102738.47;;;-5.75;83.20
8705;BME280;4389;41.932;25.904;2023-02-10T02:48:04;102737.44;;;-5.92;84.21
8705;BME280;4389;41.932;25.904;2023-02-10T02:50:40;102734.91;;;-5.87;84.09
8705;BME280;4389;41.932;25.904;2023-02-10T02:53:21;102732.47;;;-5.75;83.41
8705;BME280;4389;41.932;25.904;2023-02-10T02:56:02;102741.81;;;-5.85;83.32
8705;BME280;4389;41.932;25.904;2023-02-10T02:58:34;102735.13;;;-5.71;83.41
8705;BME280;4389;41.932;25.904;2023-02-10T03:01:11;102736.75;;;-5.76;83.84
8705;BME280;4389;41.932;25.904;2023-02-10T03:03:40;102740.16;;;-5.80;83.48
8705;BME280;4389;41.932;25.904;2023-02-10T03:06:08;102740.66;;;-6.05;83.43
8705;BME280;4389;41.932;25.904;2023-02-10T03:08:38;102748.41;;;-6.02;83.88
8705;BME280;4389;41.932;25.904;2023-02-10T03:11:05;102749.81;;;-6.22;84.26
8705;BME280;4389;41.932;25.904;2023-02-10T03:13:32;102751.63;;;-6.15;84.86
8705;BME280;4389;41.932;25.904;2023-02-10T03:15:59;102744.66;;;-6.23;84.98
8705;BME280;4389;41.932;25.904;2023-02-10T03:18:26;102743.22;;;-6.05;84.70
8705;BME280;4389;41.932;25.904;2023-02-10T03:20:54;102746.66;;;-6.06;84.43
8705;BME280;4389;41.932;25.904;2023-02-10T03:23:21;102744.97;;;-6.04;84.31
8705;BME280;4389;41.932;25.904;2023-02-10T03:25:48;102757.47;;;-6.28;84.52
8705;BME280;4389;41.932;25.904;2023-02-10T03:28:15;102757.47;;;-6.26;84.93
8705;BME280;4389;41.932;25.904;2023-02-10T03:30:42;102753.31;;;-6.20;85.67
8705;BME280;4389;41.932;25.904;2023-02-10T03:33:12;102743.84;;;-6.21;84.66
8705;BME280;4389;41.932;25.904;2023-02-10T03:35:39;102748.88;;;-6.28;85.09
8705;BME280;4389;41.932;25.904;2023-02-10T03:38:07;102746.56;;;-6.12;85.14
8705;BME280;4389;41.932;25.904;2023-02-10T03:40:34;102744.75;;;-6.16;84.25
8705;BME280;4389;41.932;25.904;2023-02-10T03:43:02;102747.97;;;-6.29;85.02
8705;BME280;4389;41.932;25.904;2023-02-10T03:45:29;102744.63;;;-6.25;84.79
8705;BME280;4389;41.932;25.904;2023-02-10T03:47:56;102745.72;;;-6.11;84.76
8705;BME280;4389;41.932;25.904;2023-02-10T03:50:24;102748.78;;;-6.33;84.62
8705;BME280;4389;41.932;25.904;2023-02-10T03:52:52;102746.13;;;-6.39;84.76
8705;BME280;4389;41.932;25.904;2023-02-10T03:55:20;102744.19;;;-6.52;85.38
8705;BME280;4389;41.932;25.904;2023-02-10T03:57:47;102744.44;;;-6.37;85.87
8705;BME280;4389;41.932;25.904;2023-02-10T04:00:14;102744.53;;;-6.31;84.94
8705;BME280;4389;41.932;25.904;2023-02-10T04:02:43;102740.31;;;-6.26;84.51
8705;BME280;4389;41.932;25.904;2023-02-10T04:05:10;102748.88;;;-6.28;84.68
8705;BME280;4389;41.932;25.904;2023-02-10T04:07:37;102747.97;;;-6.29;84.20
8705;BME280;4389;41.932;25.904;2023-02-10T04:10:04;102744.53;;;-6.31;84.70
8705;BME280;4389;41.932;25.904;2023-02-10T04:12:32;102754.47;;;-6.52;84.87
8705;BME280;4389;41.932;25.904;2023-02-10T04:14:59;102740.81;;;-6.48;84.91
8705;BME280;4389;41.932;25.904;2023-02-10T04:17:26;102739.13;;;-6.46;84.81
8705;BME280;4389;41.932;25.904;2023-02-10T04:19:53;102737.38;;;-6.50;85.07
8705;BME280;4389;41.932;25.904;2023-02-10T04:22:20;102739.28;;;-6.37;84.73
8705;BME280;4389;41.932;25.904;2023-02-10T04:24:46;102732.38;;;-6.41;84.60
8705;BME280;4389;41.932;25.904;2023-02-10T04:27:13;102729.72;;;-6.44;84.32
8705;BME280;4389;41.932;25.904;2023-02-10T04:29:41;102725.56;;;-6.36;85.05
8705;BME280;4389;41.932;25.904;2023-02-10T04:32:08;102734.06;;;-6.43;84.90
8705;BME280;4389;41.932;25.904;2023-02-10T04:34:35;102724.41;;;-6.54;84.75
8705;BME280;4389;41.932;25.904;2023-02-10T04:37:02;102737.03;;;-6.68;84.93
8705;BME280;4389;41.932;25.904;2023-02-10T04:39:28;102729.53;;;-6.56;84.45
8705;BME280;4389;41.932;25.904;2023-02-10T04:41:55;102737.03;;;-6.68;85.02
8705;BME280;4389;41.932;25.904;2023-02-10T04:44:22;102742.44;;;-6.53;85.88
8705;BME280;4389;41.932;25.904;2023-02-10T04:46:50;102747.56;;;-6.56;85.83
8705;BME280;4389;41.932;25.904;2023-02-10T04:49:17;102750.91;;;-6.60;84.55
8705;BME280;4389;41.932;25.904;2023-02-10T04:51:44;102752.69;;;-6.56;84.13
8705;BME280;4389;41.932;25.904;2023-02-10T04:54:11;102754.34;;;-6.58;84.40
8705;BME280;4389;41.932;25.904;2023-02-10T04:56:38;102757.75;;;-6.62;83.66
8705;BME280;4389;41.932;25.904;2023-02-10T04:59:04;102750.69;;;-6.72;83.48
8705;BME280;4389;41.932;25.904;2023-02-10T05:01:31;102750.59;;;-6.78;84.45
8705;BME280;4389;41.932;25.904;2023-02-10T05:04:00;102754.09;;;-6.73;84.92
8705;BME280;4389;41.932;25.904;2023-02-10T05:06:27;102764.59;;;-6.61;85.06
8705;BME280;4389;41.932;25.904;2023-02-10T05:08:53;102754.28;;;-6.64;85.17
8705;BME280;4389;41.932;25.904;2023-02-10T05:11:20;102755.63;;;-6.82;84.78
8705;BME280;4389;41.932;25.904;2023-02-10T05:13:47;102763.53;;;-7.18;84.62
8705;BME280;4389;41.932;25.904;2023-02-10T05:16:15;102759.16;;;-7.22;86.16
8705;BME280;4389;41.932;25.904;2023-02-10T05:18:42;102751.66;;;-7.11;86.14
8705;BME280;4389;41.932;25.904;2023-02-10T05:21:12;102763.06;;;-6.99;85.53
8705;BME280;4389;41.932;25.904;2023-02-10T05:23:40;102763.13;;;-6.94;86.37
8705;BME280;4389;41.932;25.904;2023-02-10T05:26:07;102765.44;;;-7.08;85.93
8705;BME280;4389;41.932;25.904;2023-02-10T05:28:34;102768.97;;;-7.03;85.94
8705;BME280;4389;41.932;25.904;2023-02-10T05:31:01;102779.13;;;-7.09;85.46
8705;BME280;4389;41.932;25.904;2023-02-10T05:33:29;102778.41;;;-7.02;85.86
8705;BME280;4389;41.932;25.904;2023-02-10T05:35:55;102776.41;;;-7.15;85.98
8705;BME280;4389;41.932;25.904;2023-02-10T05:38:24;102775.84;;;-7.02;85.85
8705;BME280;4389;41.932;25.904;2023-02-10T05:40:52;102778.59;;;-6.91;86.03
8705;BME280;4389;41.932;25.904;2023-02-10T05:43:19;102780.66;;;-6.74;86.23
8705;BME280;4389;41.932;25.904;2023-02-10T05:45:46;102782.66;;;-6.59;86.09
8705;BME280;4389;41.932;25.904;2023-02-10T05:48:13;102784.56;;;-6.48;85.79
8705;BME280;4389;41.932;25.904;2023-02-10T05:50:40;102791.47;;;-6.45;85.13
8705;BME280;4389;41.932;25.904;2023-02-10T05:53:07;102780.53;;;-6.34;85.18
8705;BME280;4389;41.932;25.904;2023-02-10T05:55:35;102798.78;;;-6.19;85.36
8705;BME280;4389;41.932;25.904;2023-02-10T05:58:02;102799.09;;;-5.99;84.43
8705;BME280;4389;41.932;25.904;2023-02-10T06:00:29;102786.47;;;-5.84;83.72
8705;BME280;4389;41.932;25.904;2023-02-10T06:02:56;102789.81;;;-5.90;83.15
8705;BME280;4389;41.932;25.904;2023-02-10T06:05:23;102786.38;;;-5.92;82.64
8705;BME280;4389;41.932;25.904;2023-02-10T06:07:49;102786.94;;;-6.09;82.97
8705;BME280;4389;41.932;25.904;2023-02-10T06:10:16;102785.00;;;-6.22;83.99
8705;BME280;4389;41.932;25.904;2023-02-10T06:12:44;102789.47;;;-6.11;84.46
8705;BME280;4389;41.932;25.904;2023-02-10T06:15:11;102782.09;;;-5.90;84.32
8705;BME280;4389;41.932;25.904;2023-02-10T06:17:38;102784.81;;;-5.78;83.67
8705;BME280;4389;41.932;25.904;2023-02-10T06:20:05;102789.03;;;-5.86;83.22
8705;BME280;4389;41.932;25.904;2023-02-10T06:22:32;102791.66;;;-5.83;83.71
8705;BME280;4389;41.932;25.904;2023-02-10T06:24:59;102795.13;;;-5.78;84.00
8705;BME280;4389;41.932;25.904;2023-02-10T06:27:26;102802.25;;;-5.60;83.65
8705;BME280;4389;41.932;25.904;2023-02-10T06:29:54;102804.06;;;-5.55;83.65
8705;BME280;4389;41.932;25.904;2023-02-10T06:32:21;102804.00;;;-5.58;82.80
8705;BME280;4389;41.932;25.904;2023-02-10T06:34:48;102804.78;;;-5.63;83.49
8705;BME280;4389;41.932;25.904;2023-02-10T06:37:15;102800.66;;;-5.51;83.93
8705;BME280;4389;41.932;25.904;2023-02-10T06:39:41;102797.41;;;-5.38;83.26
8705;BME280;4389;41.932;25.904;2023-02-10T06:42:08;102798.44;;;-5.25;83.12
8705;BME280;4389;41.932;25.904;2023-02-10T06:44:35;102798.69;;;-5.06;83.27
8705;BME280;4389;41.932;25.904;2023-02-10T06:47:03;102804.63;;;-5.13;82.74
8705;BME280;4389;41.932;25.904;2023-02-10T06:49:30;102794.50;;;-4.95;82.42
8705;BME280;4389;41.932;25.904;2023-02-10T06:51:57;102792.91;;;-4.84;81.89
8705;BME280;4389;41.932;25.904;2023-02-10T06:54:24;102793.09;;;-4.69;81.41
8705;BME280;4389;41.932;25.904;2023-02-10T06:56:51;102796.66;;;-4.58;81.24
8705;BME280;4389;41.932;25.904;2023-02-10T06:59:17;102801.19;;;-4.33;81.02
8705;BME280;4389;41.932;25.904;2023-02-10T07:01:45;102798.78;;;-4.15;80.13
8705;BME280;4389;41.932;25.904;2023-02-10T07:04:13;102791.09;;;-4.06;79.41
8705;BME280;4389;41.932;25.904;2023-02-10T07:06:40;102785.19;;;-3.89;79.30
8705;BME280;4389;41.932;25.904;2023-02-10T07:09:07;102787.91;;;-3.72;78.71
8705;BME280;4389;41.932;25.904;2023-02-10T07:11:33;102787.06;;;-3.67;78.06
8705;BME280;4389;41.932;25.904;2023-02-10T07:14:01;102797.53;;;-3.50;77.64
8705;BME280;4389;41.932;25.904;2023-02-10T07:16:27;102788.03;;;-3.45;77.22
8705;BME280;4389;41.932;25.904;2023-02-10T07:18:56;102792.50;;;-3.20;76.96
8705;BME280;4389;41.932;25.904;2023-02-10T07:21:24;102791.66;;;-3.15;77.10
8705;BME280;4389;41.932;25.904;2023-02-10T07:23:51;102788.28;;;-2.96;77.23
8705;BME280;4389;41.932;25.904;2023-02-10T07:26:18;102790.91;;;-2.90;77.27
8705;BME280;4389;41.932;25.904;2023-02-10T07:28:44;102790.97;;;-2.73;77.50
8705;BME280;4389;41.932;25.904;2023-02-10T07:31:12;102788.38;;;-2.64;77.31
8705;BME280;4389;41.932;25.904;2023-02-10T07:33:39;102791.00;;;-2.46;76.81
8705;BME280;4389;41.932;25.904;2023-02-10T07:36:07;102777.16;;;-2.54;76.70
8705;BME280;4389;41.932;25.904;2023-02-10T07:38:35;102784.06;;;-2.53;76.17
8705;BME280;4389;41.932;25.904;2023-02-10T07:41:03;102780.63;;;-2.49;76.92
8705;BME280;4389;41.932;25.904;2023-02-10T07:43:30;102778.94;;;-2.44;76.38
8705;BME280;4389;41.932;25.904;2023-02-10T07:45:57;102776.31;;;-2.38;76.80
8705;BME280;4389;41.932;25.904;2023-02-10T07:48:24;102782.38;;;-2.27;77.64
8705;BME280;4389;41.932;25.904;2023-02-10T07:50:51;102784.13;;;-2.29;77.81
8705;BME280;4389;41.932;25.904;2023-02-10T07:53:18;102774.59;;;-2.29;77.32
8705;BME280;4389;41.932;25.904;2023-02-10T07:55:47;102772.03;;;-2.09;77.77
8705;BME280;4389;41.932;25.904;2023-02-10T07:58:13;102775.47;;;-1.82;76.86
8705;BME280;4389;41.932;25.904;2023-02-10T08:00:40;102769.41;;;-1.73;76.73
8705;BME280;4389;41.932;25.904;2023-02-10T08:03:11;102759.88;;;-1.59;77.13
8705;BME280;4389;41.932;25.904;2023-02-10T08:05:39;102765.00;;;-1.38;74.85
8705;BME280;4389;41.932;25.904;2023-02-10T08:08:07;102758.03;;;-1.26;74.39
8705;BME280;4389;41.932;25.904;2023-02-10T08:10:36;102760.63;;;-1.29;73.76
8705;BME280;4389;41.932;25.904;2023-02-10T08:13:04;102757.13;;;-1.20;74.51
8705;BME280;4389;41.932;25.904;2023-02-10T08:15:32;102758.00;;;-1.20;73.55
8705;BME280;4389;41.932;25.904;2023-02-10T08:17:59;102757.09;;;-1.11;74.43
8705;BME280;4389;41.932;25.904;2023-02-10T08:20:26;102763.06;;;-0.97;72.79
8705;BME280;4389;41.932;25.904;2023-02-10T08:22:53;102754.34;;;-0.83;72.17
8705;BME280;4389;41.932;25.904;2023-02-10T08:25:21;102761.22;;;-0.71;71.89
8705;BME280;4389;41.932;25.904;2023-02-10T08:27:48;102761.19;;;-0.68;71.97
8705;BME280;4389;41.932;25.904;2023-02-10T08:30:17;102752.53;;;-0.67;71.50
8705;BME280;4389;41.932;25.904;2023-02-10T08:32:44;102749.75;;;-0.46;71.88
8705;BME280;4389;41.932;25.904;2023-02-10T08:35:11;102755.69;;;-0.26;66.41
8705;BME280;4389;41.932;25.904;2023-02-10T08:37:38;102756.41;;;-0.07;65.11
8705;BME280;4389;41.932;25.904;2023-02-10T08:40:05;102751.97;;;0.01;63.46
8705;BME280;4389;41.932;25.904;2023-02-10T08:42:32;102750.16;;;0.12;65.27
8705;BME280;4389;41.932;25.904;2023-02-10T08:45:00;102749.31;;;0.09;61.42
8705;BME280;4389;41.932;25.904;2023-02-10T08:47:28;102757.03;;;0.19;59.78
8705;BME280;4389;41.932;25.904;2023-02-10T08:49:55;102752.75;;;0.11;58.32
8705;BME280;4389;41.932;25.904;2023-02-10T08:52:22;102750.13;;;0.15;57.09
8705;BME280;4389;41.932;25.904;2023-02-10T08:54:49;102748.31;;;0.23;56.80
8705;BME280;4389;41.932;25.904;2023-02-10T08:57:16;102748.91;;;0.49;57.82
8705;BME280;4389;41.932;25.904;2023-02-10T08:59:43;102756.66;;;0.55;55.93
8705;BME280;4389;41.932;25.904;2023-02-10T09:02:10;102744.41;;;0.63;55.84
8705;BME280;4389;41.932;25.904;2023-02-10T09:04:39;102747.69;;;0.77;54.53
8705;BME280;4389;41.932;25.904;2023-02-10T09:07:06;102754.38;;;0.98;53.46
8705;BME280;4389;41.932;25.904;2023-02-10T09:09:37;102746.69;;;0.89;51.92
8705;BME280;4389;41.932;25.904;2023-02-10T09:12:05;102754.13;;;1.17;51.20
8705;BME280;4389;41.932;25.904;2023-02-10T09:14:35;102742.81;;;1.18;50.27
8705;BME280;4389;41.932;25.904;2023-02-10T09:17:02;102746.25;;;1.22;51.44
8705;BME280;4389;41.932;25.904;2023-02-10T09:19:28;102737.56;;;1.20;51.67
8705;BME280;4389;41.932;25.904;2023-02-10T09:21:56;102736.59;;;1.28;51.03
8705;BME280;4389;41.932;25.904;2023-02-10T09:24:23;102731.44;;;1.25;49.32
8705;BME280;4389;41.932;25.904;2023-02-10T09:26:50;102729.66;;;1.27;49.78
8705;BME280;4389;41.932;25.904;2023-02-10T09:29:17;102731.50;;;1.19;50.59
8705;BME280;4389;41.932;25.904;2023-02-10T09:31:44;102726.31;;;1.16;51.57
8705;BME280;4389;41.932;25.904;2023-02-10T09:34:11;102719.97;;;1.35;51.15
8705;BME280;4389;41.932;25.904;2023-02-10T09:36:38;102708.66;;;1.36;51.12
8705;BME280;4389;41.932;25.904;2023-02-10T09:39:06;102703.25;;;1.48;51.62
8705;BME280;4389;41.932;25.904;2023-02-10T09:41:47;102703.06;;;1.60;51.63
8705;BME280;4389;41.932;25.904;2023-02-10T09:44:20;102690.41;;;1.88;52.97
8705;BME280;4389;41.932;25.904;2023-02-10T09:47:02;102682.44;;;1.95;52.75
8705;BME280;4389;41.932;25.904;2023-02-10T09:49:51;102683.03;;;2.09;53.13
8705;BME280;4389;41.932;25.904;2023-02-10T09:52:29;102678.91;;;1.98;52.10
8705;BME280;4389;41.932;25.904;2023-02-10T09:55:00;102671.16;;;1.93;52.57
8705;BME280;4389;41.932;25.904;2023-02-10T09:57:34;102675.50;;;1.94;52.99
8705;BME280;4389;41.932;25.904;2023-02-10T10:00:05;102669.75;;;2.23;53.14
8705;BME280;4389;41.932;25.904;2023-02-10T10:02:45;102658.63;;;2.12;52.84
8705;BME280;4389;41.932;25.904;2023-02-10T10:05:17;102659.34;;;2.20;53.36
8705;BME280;4389;41.932;25.904;2023-02-10T10:07:49;102660.78;;;2.36;53.30
8705;BME280;4389;41.932;25.904;2023-02-10T10:10:22;102659.91;;;2.35;52.99
8705;BME280;4389;41.932;25.904;2023-02-10T10:12:51;102657.31;;;2.35;54.12
8705;BME280;4389;41.932;25.904;2023-02-10T10:15:18;102660.34;;;2.57;53.55
8705;BME280;4389;41.932;25.904;2023-02-10T10:17:57;102645.19;;;2.72;53.61
8705;BME280;4389;41.932;25.904;2023-02-10T10:20:46;102644.06;;;2.84;52.95
8705;BME280;4389;41.932;25.904;2023-02-10T10:23:36;102652.88;;;2.80;52.32
8705;BME280;4389;41.932;25.904;2023-02-10T10:26:15;102649.59;;;2.70;52.96
8705;BME280;4389;41.932;25.904;2023-02-10T10:28:57;102640.06;;;2.69;52.53
8705;BME280;4389;41.932;25.904;2023-02-10T10:31:29;102625.84;;;2.82;53.16
8705;BME280;4389;41.932;25.904;2023-02-10T10:33:59;102637.00;;;2.89;52.96
8705;BME280;4389;41.932;25.904;2023-02-10T10:36:32;102625.47;;;2.97;52.81
8705;BME280;4389;41.932;25.904;2023-02-10T10:39:03;102629.00;;;2.96;53.17
8705;BME280;4389;41.932;25.904;2023-02-10T10:41:37;102622.88;;;2.97;53.02
8705;BME280;4389;41.932;25.904;2023-02-10T10:44:04;102602.63;;;3.05;53.21
8705;BME280;4389;41.932;25.904;2023-02-10T10:46:36;102609.44;;;3.12;52.83
8705;BME280;4389;41.932;25.904;2023-02-10T10:49:05;102601.09;;;3.32;52.87
8705;BME280;4389;41.932;25.904;2023-02-10T10:51:33;102611.53;;;3.33;52.37
8705;BME280;4389;41.932;25.904;2023-02-10T10:54:01;102605.31;;;3.37;53.06
8705;BME280;4389;41.932;25.904;2023-02-10T10:56:35;102594.53;;;3.49;52.39
8705;BME280;4389;41.932;25.904;2023-02-10T10:59:10;102595.03;;;3.31;52.45
8705;BME280;4389;41.932;25.904;2023-02-10T11:01:42;102597.53;;;3.34;52.99
8705;BME280;4389;41.932;25.904;2023-02-10T11:04:12;102599.94;;;3.43;51.39
8705;BME280;4389;41.932;25.904;2023-02-10T11:06:41;102592.03;;;3.46;51.73
8705;BME280;4389;41.932;25.904;2023-02-10T11:09:23;102596.50;;;3.41;51.42
8705;BME280;4389;41.932;25.904;2023-02-10T11:11:54;102587.50;;;3.51;51.33
8705;BME280;4389;41.932;25.904;2023-02-10T11:14:28;102591.09;;;3.49;51.20
8705;BME280;4389;41.932;25.904;2023-02-10T11:16:57;102582.38;;;3.48;51.80
8705;BME280;4389;41.932;25.904;2023-02-10T11:19:27;102578.38;;;3.67;51.29
8705;BME280;4389;41.932;25.904;2023-02-10T11:21:55;102571.63;;;3.59;51.17
8705;BME280;4389;41.932;25.904;2023-02-10T11:24:24;102569.94;;;3.56;51.04
8705;BME280;4389;41.932;25.904;2023-02-10T11:27:00;102558.16;;;3.72;50.74
8705;BME280;4389;41.932;25.904;2023-02-10T11:29:29;102549.97;;;3.84;50.20
8705;BME280;4389;41.932;25.904;2023-02-10T11:31:57;102559.50;;;3.87;49.43
8705;BME280;4389;41.932;25.904;2023-02-10T11:34:26;102552.03;;;4.04;49.04
8705;BME280;4389;41.932;25.904;2023-02-10T11:36:55;102538.78;;;4.08;49.09
8705;BME280;4389;41.932;25.904;2023-02-10T11:39:25;102538.91;;;4.05;49.13
8705;BME280;4389;41.932;25.904;2023-02-10T11:41:53;102529.03;;;4.15;48.98
8705;BME280;4389;41.932;25.904;2023-02-10T11:44:28;102527.63;;;4.32;49.71
8705;BME280;4389;41.932;25.904;2023-02-10T11:46:57;102521.25;;;4.40;48.90
8705;BME280;4389;41.932;25.904;2023-02-10T11:49:24;102524.53;;;4.47;48.09
8705;BME280;4389;41.932;25.904;2023-02-10T11:51:57;102523.63;;;4.48;47.98
8705;BME280;4389;41.932;25.904;2023-02-10T11:54:25;102516.97;;;4.38;48.24
8705;BME280;4389;41.932;25.904;2023-02-10T11:57:05;102513.44;;;4.39;47.41
8705;BME280;4389;41.932;25.904;2023-02-10T12:00:03;102519.72;;;4.33;48.23
8705;BME280;4389;41.932;25.904;2023-02-10T12:02:54;102519.22;;;4.21;48.21
8705;BME280;4389;41.932;25.904;2023-02-10T12:05:28;102509.28;;;4.32;48.45
8705;BME280;4389;41.932;25.904;2023-02-10T12:08:06;102498.28;;;4.48;47.88
8705;BME280;4389;41.932;25.904;2023-02-10T12:10:39;102498.81;;;4.58;47.34
8705;BME280;4389;41.932;25.904;2023-02-10T12:13:17;102503.78;;;4.39;47.22
8705;BME280;4389;41.932;25.904;2023-02-10T12:15:50;102498.31;;;4.47;48.00
8705;BME280;4389;41.932;25.904;2023-02-10T12:18:35;102490.56;;;4.44;47.02
8705;BME280;4389;41.932;25.904;2023-02-10T12:21:19;102479.59;;;4.59;47.55
8705;BME280;4389;41.932;25.904;2023-02-10T12:24:07;102485.94;;;4.78;46.69
8705;BME280;4389;41.932;25.904;2023-02-10T12:26:42;102477.41;;;4.73;46.39
8705;BME280;4389;41.932;25.904;2023-02-10T12:29:24;102477.88;;;4.84;47.10
8705;BME280;4389;41.932;25.904;2023-02-10T12:32:01;102475.06;;;4.90;46.37
8705;BME280;4389;41.932;25.904;2023-02-10T12:34:41;102470.38;;;4.99;46.03
8705;BME280;4389;41.932;25.904;2023-02-10T12:37:20;102466.28;;;4.91;45.61
8705;BME280;4389;41.932;25.904;2023-02-10T12:40:07;102470.53;;;4.95;46.02
8705;BME280;4389;41.932;25.904;2023-02-10T12:42:47;102472.03;;;5.02;45.17
8705;BME280;4389;41.932;25.904;2023-02-10T12:45:23;102477.28;;;5.02;45.15
8705;BME280;4389;41.932;25.904;2023-02-10T12:48:03;102476.06;;;5.12;45.28
8705;BME280;4389;41.932;25.904;2023-02-10T12:50:43;102474.50;;;4.80;46.07
8705;BME280;4389;41.932;25.904;2023-02-10T12:53:16;102468.72;;;4.97;45.06
8705;BME280;4389;41.932;25.904;2023-02-10T12:55:51;102466.28;;;4.91;44.39
8705;BME280;4389;41.932;25.904;2023-02-10T12:58:24;102469.22;;;4.82;44.72
8705;BME280;4389;41.932;25.904;2023-02-10T13:01:04;102462.88;;;4.89;44.68
8705;BME280;4389;41.932;25.904;2023-02-10T13:03:37;102461.44;;;5.05;44.62
8705;BME280;4389;41.932;25.904;2023-02-10T13:06:18;102461.94;;;5.16;45.46
8705;BME280;4389;41.932;25.904;2023-02-10T13:08:49;102464.31;;;5.22;44.03
8705;BME280;4389;41.932;25.904;2023-02-10T13:11:23;102460.81;;;5.23;44.15
8705;BME280;4389;41.932;25.904;2023-02-10T13:13:54;102468.78;;;5.20;43.44
8705;BME280;4389;41.932;25.904;2023-02-10T13:16:25;102459.00;;;5.25;44.20
8705;BME280;4389;41.932;25.904;2023-02-10T13:19:00;102460.16;;;5.16;44.14
8705;BME280;4389;41.932;25.904;2023-02-10T13:21:42;102453.94;;;5.19;43.28
8705;BME280;4389;41.932;25.904;2023-02-10T13:24:15;102450.16;;;5.03;43.54
8705;BME280;4389;41.932;25.904;2023-02-10T13:26:53;102443.94;;;5.05;42.47
8705;BME280;4389;41.932;25.904;2023-02-10T13:29:30;102443.06;;;5.05;42.38